Time;durP1;ratioP1;P1;durP2;ratioP2;P2;SDS_P1;SDS_P2;PMS_P1;PMS_P2;Temp;Humidity;BMP_temperature;BMP_pressure;BME280_temperature;BME280_humidity;BME280_pressure;Samples;Min_cycle;Max_cycle;Signal;HPM_P1;HPM_P2
2022/12/05 00:01:16;;;;;;;31.37;21.00;;;6.80;82.10;;;9.39;60.34;101887.56;5075501;28;20218;-58
2022/12/05 00:03:44;;;;;;;30.43;20.90;;;6.70;82.10;;;9.40;59.90;101876.94;5078038;28;20180;-58
2022/12/05 00:06:12;;;;;;;28.20;20.47;;;6.70;82.10;;;9.43;60.17;101884.56;5077317;28;20228;-58
2022/12/05 00:08:39;;;;;;;32.73;20.97;;;6.80;82.20;;;9.44;59.66;101875.69;5078603;28;20239;-59
2022/12/05 00:11:12;;;;;;;31.57;22.13;;;6.80;82.30;;;9.43;59.96;101878.47;5058235;28;20198;-58
2022/12/05 00:13:40;;;;;;;31.27;21.00;;;6.70;82.20;;;9.41;60.27;101883.03;5060118;28;20185;-60
2022/12/05 00:16:08;;;;;;;36.23;21.67;;;6.70;82.10;;;9.38;60.24;101873.63;5060949;28;20213;-59
2022/12/05 00:18:36;;;;;;;32.93;21.40;;;6.70;82.10;;;9.37;59.91;101874.59;5058462;28;20266;-59
2022/12/05 00:21:05;;;;;;;31.30;22.03;;;6.70;82.20;;;9.37;59.98;101874.59;5074103;28;20224;-57
2022/12/05 00:23:32;;;;;;;29.13;21.77;;;6.70;82.20;;;9.40;59.84;101866.44;5074274;28;20193;-58
2022/12/05 00:26:02;;;;;;;30.17;21.30;;;6.70;82.20;;;9.41;59.84;101867.28;5073753;28;20712;-57
2022/12/05 00:28:31;;;;;;;32.33;21.30;;;6.70;82.20;;;9.45;59.97;101863.38;5074028;28;20711;-58
2022/12/05 00:31:02;;;;;;;33.47;20.70;;;6.70;82.30;;;9.51;59.58;101862.81;5074059;28;20611;-58
2022/12/05 00:33:29;;;;;;;31.07;22.30;;;6.70;82.50;;;9.51;59.84;101862.81;5072965;28;20223;-57
2022/12/05 00:36:01;;;;;;;30.67;21.93;;;6.70;82.30;;;9.44;59.84;101859.91;5073579;28;20278;-58
2022/12/05 00:38:28;;;;;;;32.13;21.90;;;6.70;82.00;;;9.43;60.11;101855.66;5085308;28;20189;-56
2022/12/05 00:41:01;;;;;;;30.57;20.67;;;6.70;81.90;;;9.42;59.78;101856.59;5093636;28;20192;-57
2022/12/05 00:43:28;;;;;;;30.13;20.10;;;6.70;81.90;;;9.47;59.36;101854.41;5080373;28;20193;-60
2022/12/05 00:46:00;;;;;;;33.33;22.67;;;6.70;82.10;;;9.44;59.36;101852.03;5073581;28;20185;-59
2022/12/05 00:48:28;;;;;;;29.30;20.43;;;6.80;82.10;;;9.44;59.64;101854.66;5073899;28;20196;-59
2022/12/05 00:51:00;;;;;;;32.20;21.63;;;6.80;82.00;;;9.42;59.81;101848.72;5073581;28;20629;-58
2022/12/05 00:53:27;;;;;;;31.23;21.70;;;6.80;82.00;;;9.47;59.75;101857.03;5074236;28;20588;-59
2022/12/05 00:55:55;;;;;;;28.77;20.67;;;6.80;82.00;;;9.52;59.55;101857.44;5073422;28;20221;-57
2022/12/05 00:58:22;;;;;;;33.63;21.47;;;6.80;82.00;;;9.59;59.63;101856.88;5073673;28;20657;-57
2022/12/05 01:00:49;;;;;;;32.50;21.83;;;6.80;82.20;;;9.61;59.62;101857.53;5073609;28;20542;-60
2022/12/05 01:03:17;;;;;;;32.50;21.40;;;6.80;82.00;;;9.63;59.42;101853.81;5073941;28;20213;-55
2022/12/05 01:05:44;;;;;;;30.67;21.60;;;6.80;82.00;;;9.63;59.24;101853.00;5073719;28;20245;-59
2022/12/05 01:08:11;;;;;;;26.97;20.50;;;6.80;81.90;;;9.64;58.90;101850.22;5073691;28;20193;-57
2022/12/05 01:10:38;;;;;;;29.50;20.80;;;6.80;81.80;;;9.66;59.12;101853.53;5073395;28;20528;-58
2022/12/05 01:13:05;;;;;;;27.30;19.37;;;6.80;81.70;;;9.68;58.88;101842.88;5073065;28;20665;-59
2022/12/05 01:15:36;;;;;;;28.03;19.57;;;6.90;81.80;;;9.65;59.37;101848.44;5073590;28;20658;-60
2022/12/05 01:18:03;;;;;;;28.30;20.57;;;6.90;81.70;;;9.66;59.07;101847.44;5054061;28;20589;-56
2022/12/05 01:20:31;;;;;;;32.27;21.13;;;6.90;81.60;;;9.68;58.88;101845.50;5070211;28;20543;-58
2022/12/05 01:22:58;;;;;;;29.20;19.30;;;6.90;81.70;;;9.66;59.35;101850.91;5073672;28;20616;-58
2022/12/05 01:25:25;;;;;;;27.80;20.00;;;6.90;81.60;;;9.65;58.88;101851.06;5073965;28;20189;-59
2022/12/05 01:27:53;;;;;;;30.53;19.77;;;6.90;81.60;;;9.66;58.95;101852.69;5074087;28;20193;-58
2022/12/05 01:30:20;;;;;;;30.10;21.33;;;6.90;81.60;;;9.68;58.81;101850.75;5074086;28;20198;-57
2022/12/05 01:32:47;;;;;;;32.67;21.10;;;6.90;81.70;;;9.70;58.96;101854.91;5073796;28;20221;-59
2022/12/05 01:35:15;;;;;;;25.23;18.47;;;6.90;81.70;;;9.74;58.77;101858.09;5073639;28;20221;-60
2022/12/05 01:37:43;;;;;;;26.57;18.70;;;6.90;81.70;;;9.77;59.33;101856.00;5078640;28;20193;-58
2022/12/05 01:40:10;;;;;;;27.03;18.57;;;6.90;81.70;;;9.77;59.19;101855.19;5081537;28;20205;-57
2022/12/05 01:42:38;;;;;;;28.83;18.43;;;6.90;81.70;;;9.78;59.28;101864.72;5079515;28;20205;-59
2022/12/05 01:45:14;;;;;;;26.77;20.00;;;6.90;81.70;;;9.73;58.93;101859.88;5088399;28;20556;-60
2022/12/05 01:47:43;;;;;;;28.43;19.10;;;6.90;81.60;;;9.71;58.91;101855.75;5081772;28;20201;-58
2022/12/05 01:50:12;;;;;;;27.67;20.03;;;7.00;81.60;;;9.69;59.53;101857.69;5077423;28;20204;-57
2022/12/05 01:52:40;;;;;;;27.07;18.87;;;6.90;81.70;;;9.68;59.17;101856.00;5076622;28;20213;-60
2022/12/05 01:55:13;;;;;;;25.77;19.13;;;6.90;81.80;;;9.64;59.65;101852.00;5077451;28;20731;-57
2022/12/05 01:57:41;;;;;;;27.67;19.87;;;6.90;81.80;;;9.64;59.70;101854.66;5077156;28;20215;-58
2022/12/05 02:00:12;;;;;;;29.53;19.27;;;6.90;82.00;;;9.65;59.50;101851.88;5075782;28;20583;-56
2022/12/05 02:02:45;;;;;;;27.80;17.53;;;6.90;82.10;;;9.67;59.35;101854.38;5076475;28;20216;-58
2022/12/05 02:05:19;;;;;;;30.70;20.93;;;6.90;82.20;;;9.66;59.62;101852.69;5076883;28;20200;-57
2022/12/05 02:07:47;;;;;;;31.57;20.07;;;6.90;82.60;;;9.64;59.85;101852.84;5075739;28;20193;-59
2022/12/05 02:10:16;;;;;;;27.23;19.37;;;6.90;82.40;;;9.66;59.86;101848.28;5088558;28;20199;-58
2022/12/05 02:12:44;;;;;;;33.33;20.97;;;6.90;82.50;;;9.67;59.66;101849.94;5088175;28;20216;-56
2022/12/05 02:15:30;;;;;;;30.50;19.73;;;6.90;82.70;;;9.66;59.88;101850.06;5077010;28;20666;-59
2022/12/05 02:18:20;;;;;;;27.70;19.50;;;6.90;82.80;;;9.67;59.74;101852.59;5076528;28;20178;-59
2022/12/05 02:21:14;;;;;;;32.33;20.67;;;6.90;82.70;;;9.68;60.19;101845.50;5056911;28;20186;-57
2022/12/05 02:24:10;;;;;;;29.57;20.60;;;6.90;82.90;;;9.66;60.53;101844.81;5056419;28;20186;-58
2022/12/05 02:26:59;;;;;;;31.37;21.17;;;6.90;83.00;;;9.63;60.41;101843.28;5056423;28;20186;-58
2022/12/05 02:30:09;;;;;;;31.33;19.53;;;6.90;83.10;;;9.64;60.16;101833.63;5056423;28;20197;-57
2022/12/05 02:33:15;;;;;;;33.17;21.63;;;6.90;83.20;;;9.61;60.48;101829.47;5055546;28;20224;-56
2022/12/05 02:35:57;;;;;;;29.10;19.83;;;6.90;83.30;;;9.67;60.37;101833.34;5066794;28;20212;-57
2022/12/05 02:38:31;;;;;;;31.90;20.73;;;6.90;83.30;;;9.73;60.05;101827.50;5076054;28;20185;-57
2022/12/05 02:41:13;;;;;;;28.80;19.70;;;6.90;83.50;;;9.76;60.38;101827.22;5074667;28;20262;-59
2022/12/05 02:43:50;;;;;;;32.70;20.87;;;6.90;83.50;;;9.77;60.00;101823.66;5075929;28;20178;-56
2022/12/05 02:46:22;;;;;;;34.23;19.67;;;6.90;83.40;;;9.79;60.21;101826.97;5076155;28;20638;-57
2022/12/05 02:48:56;;;;;;;28.57;19.60;;;6.90;83.30;;;9.80;60.21;101818.06;5075016;28;20185;-59
2022/12/05 02:51:28;;;;;;;30.27;20.37;;;7.00;83.50;;;9.78;59.84;101820.03;5075720;28;20213;-59
2022/12/05 02:54:02;;;;;;;29.17;18.67;;;7.00;83.40;;;9.79;60.72;101816.44;5075967;28;20562;-58
2022/12/05 02:56:34;;;;;;;29.47;21.07;;;7.00;83.40;;;9.77;60.06;101818.38;5077498;28;20273;-58
2022/12/05 02:59:01;;;;;;;30.33;19.83;;;7.00;83.40;;;9.76;60.19;101816.72;5076776;28;20703;-56
2022/12/05 03:01:31;;;;;;;31.50;21.67;;;7.00;83.40;;;9.75;60.44;101818.50;5076345;28;20566;-57
2022/12/05 03:04:03;;;;;;;29.60;18.70;;;7.00;83.40;;;9.78;60.21;101825.28;5076241;28;20186;-58
2022/12/05 03:06:35;;;;;;;32.30;20.17;;;7.00;83.50;;;9.80;60.40;101823.34;5075312;28;20653;-56
2022/12/05 03:09:10;;;;;;;32.07;21.83;;;7.00;83.70;;;9.75;60.92;101823.78;5078336;28;20210;-58
2022/12/05 03:11:45;;;;;;;27.87;19.60;;;7.00;83.80;;;9.71;60.80;101824.19;5095430;28;20208;-57
2022/12/05 03:14:20;;;;;;;31.23;20.17;;;7.00;83.90;;;9.68;60.48;101819.22;5096006;28;20186;-56
2022/12/05 03:16:53;;;;;;;28.83;19.57;;;7.00;83.70;;;9.67;61.19;101822.84;5095787;28;20203;-58
2022/12/05 03:19:27;;;;;;;27.90;19.03;;;6.90;83.80;;;9.71;61.06;101824.19;5088587;28;20227;-58
2022/12/05 03:22:00;;;;;;;30.57;19.10;;;6.90;83.90;;;9.74;61.00;101818.66;5075048;28;20204;-56
2022/12/05 03:24:29;;;;;;;25.87;18.57;;;7.00;84.00;;;9.78;60.67;101825.28;5075572;28;20555;-59
2022/12/05 03:27:09;;;;;;;26.67;18.00;;;7.00;84.20;;;9.78;60.52;101820.88;5075914;28;20665;-56
2022/12/05 03:29:49;;;;;;;27.30;18.27;;;7.00;84.20;;;9.78;60.73;101825.28;5075669;28;20252;-58
2022/12/05 03:32:26;;;;;;;29.60;19.67;;;7.00;84.90;;;9.81;60.83;101820.59;5074400;28;20566;-58
2022/12/05 03:35:06;;;;;;;27.03;17.97;;;7.00;84.30;;;9.85;60.92;101829.00;5074519;28;20188;-55
2022/12/05 03:37:46;;;;;;;28.00;19.63;;;7.00;84.30;;;9.88;60.91;101823.47;5075367;28;20209;-55
2022/12/05 03:40:26;;;;;;;30.20;18.23;;;7.00;84.50;;;9.90;60.78;101821.50;5073880;28;20592;-57
2022/12/05 03:43:07;;;;;;;29.20;18.47;;;7.00;84.30;;;9.92;60.39;101827.47;5075069;28;20530;-57
2022/12/05 03:45:43;;;;;;;25.60;17.90;;;7.10;84.40;;;9.93;60.77;101824.69;5074547;28;20190;-56
2022/12/05 03:48:22;;;;;;;25.40;18.07;;;7.10;84.30;;;9.95;60.31;101817.50;5074994;28;20269;-57
2022/12/05 03:50:52;;;;;;;25.93;18.27;;;7.10;84.40;;;9.99;60.41;101821.47;5074776;28;20183;-55
2022/12/05 03:53:26;;;;;;;28.50;19.30;;;7.10;84.50;;;10.04;60.27;101821.06;5074929;28;20270;-60
2022/12/05 03:56:03;;;;;;;27.83;19.17;;;7.10;84.50;;;10.05;60.13;101806.94;5074534;28;20668;-59
2022/12/05 03:58:38;;;;;;;27.53;17.90;;;7.20;84.50;;;10.01;60.22;101808.19;5074938;28;20546;-59
2022/12/05 04:01:10;;;;;;;27.47;17.77;;;7.20;84.20;;;10.01;60.86;101813.44;5072992;28;20595;-59
2022/12/05 04:03:45;;;;;;;26.77;17.80;;;7.20;84.20;;;10.03;60.64;101808.88;5073197;28;20185;-58
2022/12/05 04:06:23;;;;;;;29.37;18.37;;;7.10;84.30;;;10.04;60.04;101811.38;5074604;28;20688;-57
2022/12/05 04:08:58;;;;;;;28.83;18.17;;;7.20;84.60;;;10.05;60.50;101812.19;5074853;28;20192;-57
2022/12/05 04:11:30;;;;;;;25.43;17.43;;;7.20;84.50;;;10.07;60.83;101811.09;5074341;28;20213;-58
2022/12/05 04:14:05;;;;;;;24.90;17.33;;;7.20;84.50;;;10.08;60.17;101812.72;5074243;28;20235;-58
2022/12/05 04:21:37;;;;;;;22.33;16.27;;;7.20;84.50;;;10.16;60.54;101815.50;5073882;28;20197;-58
2022/12/05 04:22:23;;;;;;;24.60;16.10;;;7.20;84.60;;;10.22;60.16;101805.38;5073771;28;20216;-58
2022/12/05 04:27:49;;;;;;;23.93;15.90;;;7.30;84.60;;;10.26;60.00;101810.19;5074733;28;20197;-59
2022/12/05 04:30:20;;;;;;;22.43;16.37;;;7.30;84.40;;;10.27;60.11;101806.56;5074551;28;20184;-60
2022/12/05 04:32:58;;;;;;;22.40;15.67;;;7.30;84.30;;;10.28;60.29;101818.78;5074142;28;20274;-58
2022/12/05 04:35:31;;;;;;;21.20;15.80;;;7.30;84.20;;;10.31;60.77;101813.22;5074745;28;20188;-59
2022/12/05 04:38:09;;;;;;;23.07;15.83;;;7.40;84.50;;;10.34;60.43;101815.53;5074778;28;20197;-59
2022/12/05 04:40:43;;;;;;;22.83;15.87;;;7.40;84.40;;;10.34;60.28;101812.09;5075431;28;20207;-62
2022/12/05 04:43:13;;;;;;;23.20;15.70;;;7.40;84.30;;;10.35;59.93;101814.56;5075714;28;20229;-60
2022/12/05 04:45:43;;;;;;;20.30;15.63;;;7.40;84.20;;;10.36;60.15;101813.63;5076749;28;20582;-59
2022/12/05 04:48:16;;;;;;;22.80;16.20;;;7.40;84.20;;;10.35;60.02;101817.22;5077007;28;20246;-59
2022/12/05 04:50:50;;;;;;;25.53;19.17;;;7.40;84.10;;;10.31;60.27;101818.47;5077049;28;20207;-58
2022/12/05 04:53:20;;;;;;;23.00;15.43;;;7.40;83.90;;;10.29;59.83;101819.59;5079380;28;20213;-59
2022/12/05 04:55:53;;;;;;;23.77;16.53;;;7.40;84.00;;;10.29;60.21;101825.69;5079196;28;20672;-59
2022/12/05 04:58:23;;;;;;;18.73;13.90;;;7.40;84.20;;;10.36;60.55;101824.13;5075329;28;20204;-57
2022/12/05 05:01:01;;;;;;;23.57;15.37;;;7.40;84.60;;;10.39;60.44;101815.94;5072028;28;20185;-58
2022/12/05 05:03:35;;;;;;;21.80;15.23;;;7.40;84.60;;;10.41;60.41;101819.25;5073710;28;20177;-57
2022/12/05 05:06:05;;;;;;;22.57;15.43;;;7.40;84.20;;;10.38;60.23;101818.72;5073242;28;20495;-58
2022/12/05 05:08:32;;;;;;;23.30;14.53;;;7.50;84.20;;;10.35;60.08;101814.56;5073867;28;20191;-59
2022/12/05 05:11:13;;;;;;;24.33;16.23;;;7.50;84.10;;;10.29;59.94;101812.53;5072594;28;20197;-58
2022/12/05 05:13:41;;;;;;;18.87;14.30;;;7.50;84.00;;;10.31;60.87;101813.22;5076679;28;20180;-59
2022/12/05 05:16:16;;;;;;;20.73;14.80;;;7.40;84.00;;;10.35;60.12;101819.00;5077408;28;20185;-59
2022/12/05 05:18:44;;;;;;;20.27;14.60;;;7.40;84.30;;;10.36;60.21;101820.69;5077208;28;20201;-58
2022/12/05 05:21:23;;;;;;;19.67;14.37;;;7.50;84.30;;;10.34;60.09;101815.53;5076901;28;20189;-58
2022/12/05 05:23:50;;;;;;;19.77;14.83;;;7.50;84.30;;;10.36;60.38;101812.78;5077795;28;20192;-59
2022/12/05 05:26:18;;;;;;;20.37;14.90;;;7.50;84.30;;;10.38;61.17;101819.56;5077338;28;20677;-59
2022/12/05 05:28:46;;;;;;;24.83;15.57;;;7.50;85.00;;;10.43;60.19;101812.06;5077543;28;20654;-60
2022/12/05 05:31:15;;;;;;;20.37;15.80;;;7.50;84.90;;;10.44;60.75;101818.13;5077295;28;20201;-58
2022/12/05 05:33:42;;;;;;;18.37;13.87;;;7.50;84.70;;;10.46;60.50;101811.72;5077529;28;20201;-58
2022/12/05 05:36:12;;;;;;;19.03;14.20;;;7.50;84.60;;;10.44;60.28;101813.69;5077104;28;20185;-57
2022/12/05 05:38:43;;;;;;;22.03;14.67;;;7.50;84.70;;;10.43;60.44;101806.78;5076671;28;20213;-58
2022/12/05 05:41:13;;;;;;;23.53;15.53;;;7.50;84.40;;;10.44;60.54;101823.38;5075248;28;20218;-58
2022/12/05 05:43:41;;;;;;;18.17;13.20;;;7.50;84.40;;;10.44;60.01;101821.59;5077058;28;20182;-59
2022/12/05 05:46:09;;;;;;;18.57;13.73;;;7.50;84.40;;;10.47;60.10;101817.84;5076840;28;20548;-58
2022/12/05 05:48:37;;;;;;;18.37;13.93;;;7.50;84.60;;;10.46;60.81;101814.38;5077582;28;20250;-60
2022/12/05 05:51:06;;;;;;;18.93;13.83;;;7.50;84.60;;;10.46;59.97;101811.72;5076850;28;20559;-59
2022/12/05 05:53:34;;;;;;;19.30;14.60;;;7.60;84.70;;;10.44;60.20;101813.69;5076824;28;20506;-60
2022/12/05 05:56:04;;;;;;;20.57;14.43;;;7.50;84.50;;;10.46;60.37;101817.00;5076420;28;20193;-57
2022/12/05 05:58:32;;;;;;;19.30;13.67;;;7.50;84.70;;;10.49;60.27;101816.72;5076437;28;20213;-60
2022/12/05 06:01:03;;;;;;;20.33;14.93;;;7.60;85.00;;;10.50;60.15;101818.38;5075924;28;20189;-60
2022/12/05 06:03:30;;;;;;;19.80;15.10;;;7.60;84.80;;;10.52;60.73;101816.44;5076888;28;20375;-59
2022/12/05 06:05:58;;;;;;;18.93;14.57;;;7.60;84.80;;;10.54;60.14;101814.47;5076455;28;20197;-59
2022/12/05 06:08:28;;;;;;;18.53;13.97;;;7.60;84.90;;;10.59;60.93;101812.22;5076439;28;20181;-57
2022/12/05 06:10:55;;;;;;;17.90;13.87;;;7.60;85.20;;;10.64;61.00;101815.25;5076802;28;20284;-57
2022/12/05 06:13:23;;;;;;;17.43;14.57;;;7.60;85.30;;;10.70;60.85;101804.09;5077783;28;20189;-58
2022/12/05 06:15:50;;;;;;;19.73;14.53;;;7.60;85.40;;;10.78;60.26;101806.84;5077584;28;20189;-60
2022/12/05 06:18:17;;;;;;;17.33;13.63;;;7.70;85.50;;;10.82;60.44;101802.91;5077247;28;20223;-59
2022/12/05 06:20:52;;;;;;;19.10;14.33;;;7.70;85.50;;;10.86;60.45;101808.72;5077552;28;20201;-58
2022/12/05 06:23:19;;;;;;;18.80;14.80;;;7.80;85.40;;;10.86;59.66;101814.00;5076620;28;20275;-58
2022/12/05 06:25:47;;;;;;;20.47;14.43;;;7.80;84.90;;;10.81;60.07;101811.81;5075813;28;20564;-58
2022/12/05 06:28:15;;;;;;;17.93;13.40;;;7.80;84.50;;;10.76;60.20;101814.06;5076808;28;20212;-57
2022/12/05 06:30:44;;;;;;;17.10;13.37;;;7.80;85.10;;;10.75;60.39;101817.66;5078757;28;20197;-57
2022/12/05 06:33:11;;;;;;;17.60;13.40;;;7.80;84.30;;;10.77;60.37;101820.97;5076435;28;20221;-59
2022/12/05 06:35:39;;;;;;;19.67;14.37;;;7.80;84.50;;;10.77;60.06;101815.69;5076616;28;20189;-59
2022/12/05 06:38:06;;;;;;;16.77;13.67;;;7.80;84.40;;;10.76;60.18;101814.06;5077397;28;20210;-58
2022/12/05 06:40:34;;;;;;;17.47;13.50;;;7.80;84.30;;;10.70;59.62;101819.91;5076215;28;20185;-57
2022/12/05 06:43:01;;;;;;;17.50;13.23;;;7.80;84.20;;;10.66;60.27;101813.28;5075783;28;20217;-60
2022/12/05 06:45:28;;;;;;;16.63;12.47;;;7.80;84.20;;;10.63;60.48;101825.91;5076612;28;20203;-59
2022/12/05 06:47:57;;;;;;;16.30;12.10;;;7.70;84.30;;;10.59;60.25;101822.75;5076617;28;20231;-60
2022/12/05 06:50:24;;;;;;;17.43;13.80;;;7.70;84.40;;;10.60;60.38;101818.31;5076056;28;20236;-60
2022/12/05 06:52:51;;;;;;;19.30;14.90;;;7.70;84.70;;;10.58;60.45;101826.34;5075128;28;20220;-57
2022/12/05 06:55:18;;;;;;;20.80;14.07;;;7.70;84.90;;;10.56;60.73;101823.03;5076253;28;20201;-58
2022/12/05 06:57:44;;;;;;;19.10;14.57;;;7.70;84.90;;;10.58;61.09;101830.78;5074228;28;20320;-58
2022/12/05 07:03:00;;;;;;;19.83;14.90;;;7.70;85.10;;;10.55;60.87;101821.41;5076560;28;20207;-63
2022/12/05 07:05:27;;;;;;;18.03;12.93;;;7.60;85.20;;;10.53;60.79;101818.06;5077047;28;20654;-58
2022/12/05 07:07:54;;;;;;;18.47;13.80;;;7.60;85.20;;;10.53;61.05;101822.53;5076629;28;20197;-57
2022/12/05 07:10:22;;;;;;;23.37;17.67;;;7.60;85.30;;;10.51;60.88;101820.03;5075825;28;20291;-58
2022/12/05 07:12:49;;;;;;;15.57;12.40;;;7.60;85.30;;;10.51;61.12;101820.03;5074410;28;20251;-58
2022/12/05 07:15:16;;;;;;;26.40;20.97;;;7.60;85.30;;;10.52;60.82;101821.69;5074118;28;20677;-60
2022/12/05 07:17:43;;;;;;;18.23;14.43;;;7.60;85.70;;;10.52;61.08;101820.84;5076293;28;20677;-60
2022/12/05 07:20:16;;;;;;;28.53;22.33;;;7.60;85.80;;;10.50;61.29;101823.66;5075237;28;20304;-58
2022/12/05 07:22:44;;;;;;;22.00;17.70;;;7.60;85.70;;;10.50;61.39;101828.91;5074976;28;20367;-61
2022/12/05 07:25:12;;;;;;;16.90;14.00;;;7.60;85.80;;;10.50;61.69;101818.38;5076541;28;20857;-58
2022/12/05 07:27:39;;;;;;;18.40;13.40;;;7.60;85.80;;;10.52;61.29;101829.59;5076844;28;20258;-58
2022/12/05 07:30:08;;;;;;;16.03;12.83;;;7.60;86.00;;;10.55;61.21;101824.03;5078743;28;20300;-61
2022/12/05 07:32:35;;;;;;;18.13;13.70;;;7.60;86.00;;;10.54;60.94;101825.00;5091267;28;20223;-60
2022/12/05 07:35:02;;;;;;;17.40;13.07;;;7.60;86.00;;;10.51;61.00;101820.03;5075165;28;20189;-59
2022/12/05 07:37:30;;;;;;;17.30;12.17;;;7.60;85.90;;;10.49;61.27;101821.97;5077912;28;20224;-60
2022/12/05 07:39:57;;;;;;;15.80;11.80;;;7.60;85.80;;;10.49;61.51;101816.72;5094962;28;20196;-58
2022/12/05 07:42:25;;;;;;;14.77;12.13;;;7.60;86.00;;;10.51;61.06;101822.66;5095349;28;20583;-60
2022/12/05 07:44:52;;;;;;;21.10;16.53;;;7.60;86.00;;;10.51;61.58;101814.75;5095645;28;20216;-57
2022/12/05 07:47:19;;;;;;;22.83;18.57;;;7.60;86.10;;;10.49;61.80;101816.72;5089472;28;20200;-59
2022/12/05 07:49:46;;;;;;;22.07;15.40;;;7.60;86.00;;;10.51;61.26;101819.19;5074619;28;20197;-60
2022/12/05 07:52:13;;;;;;;17.60;13.10;;;7.60;86.10;;;10.50;61.75;101821.00;5074379;28;20217;-60
2022/12/05 07:54:41;;;;;;;15.47;13.00;;;7.60;86.20;;;10.50;61.31;101822.81;5074846;28;20189;-57
2022/12/05 07:57:08;;;;;;;15.63;12.77;;;7.60;86.10;;;10.50;61.29;101822.81;5075267;28;20197;-59
2022/12/05 07:59:35;;;;;;;16.17;12.87;;;7.60;86.20;;;10.47;61.84;101821.31;5074496;28;20604;-59
2022/12/05 08:02:03;;;;;;;15.37;12.47;;;7.60;86.10;;;10.44;61.64;101821.59;5074252;28;20271;-60
2022/12/05 08:04:30;;;;;;;14.87;11.43;;;7.60;86.10;;;10.42;61.87;101820.91;5074027;28;20723;-57
2022/12/05 08:06:57;;;;;;;13.97;11.37;;;7.60;85.80;;;10.40;61.26;101822.88;5074839;28;20239;-59
2022/12/05 08:09:24;;;;;;;15.80;12.43;;;7.60;85.80;;;10.42;61.84;101820.91;5081714;28;20249;-59
2022/12/05 08:11:52;;;;;;;13.47;11.27;;;7.60;86.10;;;10.45;61.73;101817.16;5094455;28;20212;-58
2022/12/05 08:14:20;;;;;;;14.83;11.87;;;7.60;86.20;;;10.47;61.45;101817.84;5074929;28;20205;-59
2022/12/05 08:16:47;;;;;;;14.23;11.33;;;7.60;86.20;;;10.49;61.57;101827.25;5074199;28;20194;-58
2022/12/05 08:19:15;;;;;;;12.13;9.87;;;7.60;86.20;;;10.52;61.65;101826.13;5074482;28;20221;-57
2022/12/05 08:21:43;;;;;;;12.97;10.73;;;7.60;86.00;;;10.54;61.41;101819.75;5074587;28;20209;-61
2022/12/05 08:24:11;;;;;;;13.50;9.83;;;7.60;86.10;;;10.57;61.15;101815.97;5074735;28;20196;-58
2022/12/05 08:26:39;;;;;;;13.57;11.13;;;7.60;86.10;;;10.56;60.87;101828.31;5091538;28;20201;-57
2022/12/05 08:29:11;;;;;;;13.43;10.93;;;7.60;85.90;;;10.54;60.96;101819.75;5075742;28;20190;-58
2022/12/05 08:31:42;;;;;;;25.03;20.53;;;7.60;85.80;;;10.52;61.52;101826.97;5073848;28;20244;-58
2022/12/05 08:34:11;;;;;;;12.00;10.20;;;7.60;85.80;;;10.53;60.97;101825.16;5074253;28;20201;-60
2022/12/05 08:36:42;;;;;;;18.10;15.37;;;7.60;85.90;;;10.54;60.93;101827.63;5073282;28;20601;-60
2022/12/05 08:39:14;;;;;;;50.60;30.90;;;7.60;86.10;;;10.58;61.56;101828.97;5091583;28;20214;-58
2022/12/05 08:41:42;;;;;;;17.63;13.03;;;7.60;86.30;;;10.62;61.03;101840.91;5093299;28;20287;-58
2022/12/05 08:44:17;;;;;;;14.47;11.57;;;7.60;86.30;;;10.61;61.30;101833.97;5093869;28;20196;-60
2022/12/05 08:46:46;;;;;;;11.47;9.07;;;7.60;86.00;;;10.59;61.10;101838.56;5084263;28;20205;-59
2022/12/05 08:49:15;;;;;;;12.80;10.17;;;7.60;86.00;;;10.57;61.10;101840.50;5074537;28;20189;-60
2022/12/05 08:51:43;;;;;;;12.90;9.23;;;7.70;85.80;;;10.55;61.18;101842.47;5078643;28;20217;-57
2022/12/05 08:54:11;;;;;;;14.47;10.37;;;7.70;85.70;;;10.56;61.44;101832.75;5073960;28;20238;-60
2022/12/05 08:56:38;;;;;;;14.17;10.27;;;7.60;85.90;;;10.57;61.58;101840.50;5073322;28;20649;-58
2022/12/05 08:59:06;;;;;;;13.80;10.40;;;7.70;85.90;;;10.60;61.37;101837.56;5071966;28;20259;-58
2022/12/05 09:01:37;;;;;;;10.57;9.20;;;7.60;85.90;;;10.60;61.19;101829.66;5064101;28;20280;-57
2022/12/05 09:04:06;;;;;;;11.77;9.03;;;7.70;86.00;;;10.64;60.98;101838.94;5071573;28;20216;-59
2022/12/05 09:06:34;;;;;;;14.97;10.07;;;7.70;86.10;;;10.68;61.22;101842.09;5077037;28;20196;-59
2022/12/05 09:09:07;;;;;;;11.47;8.70;;;7.70;86.10;;;10.70;60.94;101840.13;5078427;28;20242;-59
2022/12/05 09:11:39;;;;;;;11.17;9.93;;;7.80;86.10;;;10.71;60.85;101847.91;5084361;28;20601;-59
2022/12/05 09:14:07;;;;;;;11.73;9.10;;;7.70;85.90;;;10.70;60.87;101843.59;5074128;28;20221;-59
2022/12/05 09:16:37;;;;;;;11.33;9.20;;;7.80;85.80;;;10.72;61.15;101848.75;5074661;28;20530;-60
2022/12/05 09:19:12;;;;;;;13.87;10.10;;;7.70;85.70;;;10.71;60.75;101842.63;5056307;28;20267;-60
2022/12/05 09:21:42;;;;;;;13.37;10.27;;;7.80;86.00;;;10.75;61.17;101849.25;5054223;28;20569;-59
2022/12/05 09:24:11;;;;;;;12.93;9.37;;;7.80;86.10;;;10.76;60.63;101850.94;5053707;28;20197;-59
2022/12/05 09:26:40;;;;;;;18.87;14.20;;;7.80;85.90;;;10.77;60.97;101842.03;5053641;28;20186;-57
2022/12/05 09:29:09;;;;;;;12.33;10.23;;;7.80;85.70;;;10.77;61.10;101842.03;5056208;28;20215;-58
2022/12/05 09:31:46;;;;;;;15.17;12.60;;;7.80;85.80;;;10.80;60.68;101841.75;5071264;28;20219;-60
2022/12/05 09:34:16;;;;;;;13.93;10.03;;;7.80;85.90;;;10.80;60.79;101841.75;5072213;28;20202;-60
2022/12/05 09:36:44;;;;;;;14.80;9.53;;;7.80;85.70;;;10.81;60.48;101848.69;5072149;28;20259;-61
2022/12/05 09:39:11;;;;;;;15.43;9.63;;;7.90;85.70;;;10.80;60.99;101840.91;5055187;28;20210;-60
2022/12/05 09:42:17;;;;;;;13.53;8.80;;;7.90;85.50;;;10.76;60.92;101844.81;5055209;28;20218;-58
2022/12/05 09:45:01;;;;;;;10.87;8.50;;;7.90;85.40;;;10.73;60.67;101845.13;5055070;28;20193;-57
2022/12/05 09:47:49;;;;;;;13.70;8.67;;;7.90;85.10;;;10.69;60.50;101846.41;5060547;28;20246;-58
2022/12/05 09:50:21;;;;;;;10.47;8.83;;;7.90;85.10;;;10.69;60.60;101844.59;5073434;28;20201;-58
2022/12/05 09:53:12;;;;;;;12.53;8.43;;;7.80;85.00;;;10.70;60.58;101845.41;5072442;28;20633;-58
2022/12/05 09:55:47;;;;;;;13.73;9.43;;;7.80;85.40;;;10.77;60.89;101852.56;5072409;28;20203;-59
2022/12/05 09:58:24;;;;;;;11.13;8.87;;;7.90;85.70;;;10.81;60.92;101853.94;5074239;28;20244;-59
2022/12/05 10:01:07;;;;;;;11.03;8.63;;;7.90;86.50;;;10.83;60.90;101849.34;5073284;28;20189;-59
2022/12/05 10:03:44;;;;;;;29.03;21.77;;;7.80;85.60;;;10.84;60.41;101848.34;5077358;28;20197;-58
2022/12/05 10:06:18;;;;;;;22.80;19.37;;;7.90;85.40;;;10.86;60.44;101851.66;5065806;28;20189;-60
2022/12/05 10:09:11;;;;;;;13.57;9.67;;;7.90;85.40;;;10.80;59.72;101852.28;5077639;28;20199;-59
2022/12/05 10:11:49;;;;;;;12.60;9.87;;;7.90;85.00;;;10.76;60.34;101843.03;5068324;28;20661;-59
2022/12/05 10:14:31;;;;;;;10.00;7.60;;;7.90;84.70;;;10.72;59.89;101849.53;5056707;28;20185;-59
2022/12/05 10:17:07;;;;;;;9.57;7.63;;;7.80;84.40;;;10.71;59.70;101847.91;5067845;28;20197;-60
2022/12/05 10:19:43;;;;;;;9.97;7.67;;;7.80;84.20;;;10.67;60.37;101850.97;5067023;28;20634;-57
2022/12/05 10:22:18;;;;;;;20.97;14.73;;;7.80;84.10;;;10.64;59.81;101846.84;5055587;28;20202;-56
2022/12/05 10:24:53;;;;;;;8.90;6.93;;;7.80;84.20;;;10.64;60.20;101849.47;5056267;28;20190;-58
2022/12/05 10:27:29;;;;;;;10.30;7.10;;;7.70;84.10;;;10.64;60.04;101844.22;5056787;28;20178;-60
2022/12/05 10:30:13;;;;;;;8.27;6.47;;;7.70;84.30;;;10.63;60.27;101847.81;5056547;28;20195;-58
2022/12/05 10:32:52;;;;;;;13.83;8.50;;;7.70;84.30;;;10.63;60.46;101845.16;5055240;28;20233;-58
2022/12/05 10:35:25;;;;;;;11.37;8.23;;;7.70;84.40;;;10.65;59.91;101845.03;5072304;28;20601;-59
2022/12/05 10:37:55;;;;;;;12.17;9.87;;;7.70;84.60;;;10.65;60.30;101843.22;5068642;28;20222;-60